createdAt,value
2018-10-02T00:01:15.130Z,4.80
2018-10-02T00:03:42.198Z,10.23
2018-10-02T00:06:09.289Z,6.90
2018-10-02T00:08:36.396Z,12.90
2018-10-02T00:12:08.400Z,9.20
2018-10-02T00:14:35.511Z,4.97
2018-10-02T00:17:02.593Z,10.43
2018-10-02T00:19:29.679Z,6.57
2018-10-02T00:21:56.706Z,4.83
2018-10-02T00:24:23.825Z,5.20
2018-10-02T00:26:51.201Z,7.47
2018-10-02T00:29:18.219Z,11.90
2018-10-02T00:31:45.243Z,7.87
2018-10-02T00:34:12.294Z,6.30
2018-10-02T00:36:39.476Z,9.13
2018-10-02T00:39:06.736Z,9.00
2018-10-02T00:41:33.831Z,8.40
2018-10-02T00:44:00.916Z,6.27
2018-10-02T00:46:27.938Z,10.10
2018-10-02T00:48:55.243Z,6.57
2018-10-02T00:51:22.372Z,6.30
2018-10-02T00:53:49.412Z,4.73
2018-10-02T00:56:16.644Z,5.07
2018-10-02T00:58:43.588Z,10.03
2018-10-02T01:01:10.556Z,8.10
2018-10-02T01:03:37.778Z,7.23
2018-10-02T01:06:04.712Z,6.07
2018-10-02T01:08:31.652Z,6.70
2018-10-02T01:10:58.620Z,7.53
2018-10-02T01:13:25.555Z,3.73
2018-10-02T01:15:52.494Z,4.63
2018-10-02T01:18:19.481Z,6.87
2018-10-02T01:20:46.407Z,6.83
2018-10-02T01:23:13.344Z,6.40
2018-10-02T01:25:40.554Z,9.20
2018-10-02T01:28:07.496Z,3.83
2018-10-02T01:30:34.428Z,12.10
2018-10-02T01:33:01.377Z,8.83
2018-10-02T01:35:28.307Z,6.57
2018-10-02T01:37:55.232Z,5.17
2018-10-02T01:40:22.476Z,4.97
2018-10-02T01:42:49.390Z,4.67
2018-10-02T01:45:16.400Z,6.27
2018-10-02T01:47:43.340Z,6.80
2018-10-02T01:50:10.256Z,5.73
2018-10-02T01:52:37.292Z,8.30
2018-10-02T01:55:04.507Z,12.83
2018-10-02T01:57:31.526Z,5.90
2018-10-02T01:59:58.470Z,4.73
2018-10-02T02:02:25.401Z,6.47
2018-10-02T02:04:52.324Z,8.30
2018-10-02T02:07:19.297Z,6.03
2018-10-02T02:09:46.284Z,4.97
2018-10-02T02:12:13.224Z,8.33
2018-10-02T02:14:40.136Z,6.57
2018-10-02T02:17:07.137Z,9.53
2018-10-02T02:19:34.054Z,3.50
2018-10-02T02:22:01.067Z,5.33
2018-10-02T02:24:28.036Z,8.47
2018-10-02T02:26:54.989Z,7.23
2018-10-02T02:29:21.938Z,14.50
2018-10-02T02:31:48.897Z,16.77
2018-10-02T02:34:15.841Z,5.53
2018-10-02T02:36:42.767Z,4.30
2018-10-02T02:39:10.064Z,10.23
2018-10-02T02:41:36.992Z,13.03
2018-10-02T02:44:03.971Z,10.87
2018-10-02T02:46:30.949Z,9.30
2018-10-02T02:49:03.812Z,12.67
2018-10-02T02:51:32.334Z,7.17
2018-10-02T02:53:59.373Z,16.80
2018-10-02T02:56:26.973Z,9.73
2018-10-02T02:58:54.083Z,9.30
2018-10-02T03:01:21.040Z,7.13
2018-10-02T03:03:48.003Z,9.70
2018-10-02T03:06:15.256Z,12.07
2018-10-02T03:08:42.244Z,13.40
2018-10-02T03:11:09.193Z,11.03
2018-10-02T03:13:36.177Z,8.57
2018-10-02T03:16:03.196Z,11.73
2018-10-02T03:18:30.128Z,14.07
2018-10-02T03:20:57.433Z,5.10
2018-10-02T03:23:24.361Z,13.80
2018-10-02T03:25:51.355Z,14.13
2018-10-02T03:28:18.685Z,7.30
2018-10-02T03:30:45.664Z,13.63
2018-10-02T03:33:12.662Z,13.97
2018-10-02T03:35:39.619Z,12.23
2018-10-02T03:38:06.580Z,16.77
2018-10-02T03:40:33.549Z,11.37
2018-10-02T03:43:00.594Z,19.00
2018-10-02T03:45:27.585Z,10.57
2018-10-02T03:47:54.528Z,11.87
2018-10-02T03:50:21.519Z,8.13
2018-10-02T03:52:48.516Z,15.80
2018-10-02T03:55:15.544Z,10.93
2018-10-02T03:57:42.492Z,21.50
2018-10-02T04:00:09.437Z,10.20
2018-10-02T04:02:36.421Z,9.80
2018-10-02T04:05:03.484Z,15.33
2018-10-02T04:07:30.490Z,21.70
2018-10-02T04:09:57.457Z,24.97
2018-10-02T04:12:24.769Z,21.33
2018-10-02T04:14:51.732Z,20.77
2018-10-02T04:17:18.673Z,10.50
2018-10-02T04:19:52.965Z,19.10
2018-10-02T04:22:19.904Z,11.17
2018-10-02T04:24:46.871Z,16.57
2018-10-02T04:27:13.892Z,15.03
2018-10-02T04:29:40.847Z,10.07
2018-10-02T04:32:07.886Z,13.47
2018-10-02T04:34:34.865Z,15.50
2018-10-02T04:37:01.809Z,14.00
2018-10-02T04:39:28.828Z,16.60
2018-10-02T04:41:56.082Z,18.53
2018-10-02T04:44:23.037Z,24.60
2018-10-02T04:46:50.059Z,14.47
2018-10-02T04:49:17.037Z,13.83
2018-10-02T04:51:44.001Z,10.73
2018-10-02T04:54:10.956Z,13.93
2018-10-02T04:56:38.268Z,10.70
2018-10-02T04:59:05.191Z,15.20
2018-10-02T05:01:32.174Z,15.30
2018-10-02T05:03:59.514Z,18.40
2018-10-02T05:06:26.454Z,20.97
2018-10-02T05:08:53.453Z,10.50
2018-10-02T05:11:21.150Z,19.10
2018-10-02T05:13:48.075Z,14.73
2018-10-02T05:16:15.090Z,14.37
2018-10-02T05:18:42.054Z,16.80
2018-10-02T05:21:09.009Z,25.63
2018-10-02T05:23:36.052Z,14.83
2018-10-02T05:26:03.022Z,15.17
2018-10-02T05:28:29.985Z,24.70
2018-10-02T05:30:56.943Z,18.57
2018-10-02T05:33:24.214Z,24.50
2018-10-02T05:35:51.239Z,25.97
2018-10-02T05:38:18.181Z,20.70
2018-10-02T05:40:45.149Z,15.07
2018-10-02T05:43:12.113Z,14.73
2018-10-02T05:45:39.095Z,14.63
2018-10-02T05:48:06.120Z,25.03
2018-10-02T05:50:33.143Z,16.27
2018-10-02T05:53:00.114Z,14.23
2018-10-02T05:55:27.182Z,15.63
2018-10-02T05:57:54.239Z,12.50
2018-10-02T06:00:21.164Z,15.40
2018-10-02T06:02:48.197Z,14.70
2018-10-02T06:05:15.182Z,17.13
2018-10-02T06:07:42.141Z,12.37
2018-10-02T06:10:09.401Z,16.00
2018-10-02T06:12:36.331Z,23.40
2018-10-02T06:15:03.432Z,10.57
2018-10-02T06:17:30.719Z,25.33
2018-10-02T06:19:57.653Z,14.00
2018-10-02T06:22:24.575Z,18.10
2018-10-02T06:24:51.608Z,15.23
2018-10-02T06:27:18.697Z,19.30
2018-10-02T06:29:45.760Z,11.87
2018-10-02T06:32:12.812Z,16.17
2018-10-02T06:34:39.877Z,19.00
2018-10-02T06:37:06.897Z,20.60
2018-10-02T06:39:33.994Z,23.93
2018-10-02T06:42:01.516Z,20.53
2018-10-02T06:44:29.467Z,10.07
2018-10-02T06:46:56.360Z,16.20
2018-10-02T06:49:23.329Z,10.10
2018-10-02T06:51:50.441Z,12.00
2018-10-02T06:54:17.796Z,21.83
2018-10-02T06:56:44.895Z,10.20
2018-10-02T06:59:11.930Z,12.97
2018-10-02T07:01:38.871Z,8.00
2018-10-02T07:04:05.870Z,13.60
2018-10-02T07:06:32.832Z,7.67
2018-10-02T07:09:14.111Z,8.07
2018-10-02T07:11:41.121Z,10.27
2018-10-02T07:14:09.128Z,12.40
2018-10-02T07:16:36.263Z,5.10
2018-10-02T07:19:03.216Z,12.73
2018-10-02T07:21:30.538Z,7.70
2018-10-02T07:23:57.813Z,7.57
2018-10-02T07:26:24.849Z,10.70
2018-10-02T07:28:52.110Z,9.70
2018-10-02T07:31:19.821Z,6.97
2018-10-02T07:33:46.827Z,10.60
2018-10-02T07:36:13.797Z,7.60
2018-10-02T07:38:40.942Z,9.97
2018-10-02T07:41:07.857Z,9.10
2018-10-02T07:43:35.761Z,8.80
2018-10-02T07:46:04.413Z,20.93
2018-10-02T07:48:32.436Z,9.07
2018-10-02T07:50:59.583Z,27.73
2018-10-02T07:53:26.725Z,8.10
2018-10-02T07:55:53.989Z,7.40
2018-10-02T07:58:21.439Z,11.50
2018-10-02T08:00:48.719Z,13.10
2018-10-02T08:03:15.794Z,10.23
2018-10-02T08:05:43.649Z,11.73
2018-10-02T08:08:11.530Z,10.00
2018-10-02T08:10:38.719Z,8.00
2018-10-02T08:13:05.821Z,12.90
2018-10-02T08:15:32.920Z,7.97
2018-10-02T08:18:00.121Z,9.93
2018-10-02T08:20:27.575Z,12.80
2018-10-02T08:22:54.655Z,18.47
2018-10-02T08:25:21.905Z,9.10
2018-10-02T08:27:49.301Z,9.20
2018-10-02T08:30:16.454Z,15.33
2018-10-02T08:32:43.600Z,8.20
2018-10-02T08:35:10.683Z,12.43
2018-10-02T08:37:38.165Z,9.47
2018-10-02T08:40:05.450Z,9.83
2018-10-02T08:42:32.578Z,8.57
2018-10-02T08:44:59.893Z,8.63
2018-10-02T08:47:27.265Z,12.57
2018-10-02T08:49:54.406Z,11.13
2018-10-02T08:52:22.079Z,8.77
2018-10-02T08:54:49.097Z,6.50
2018-10-02T08:57:16.175Z,7.30
2018-10-02T08:59:44.567Z,11.60
2018-10-02T09:02:12.268Z,9.40
2018-10-02T09:04:41.356Z,15.90
2018-10-02T09:07:09.132Z,14.20
2018-10-02T09:09:36.651Z,6.00
2018-10-02T09:12:04.955Z,11.27
2018-10-02T09:14:32.192Z,12.00
2018-10-02T09:16:59.223Z,15.97
2018-10-02T09:19:26.281Z,15.60
2018-10-02T09:21:53.442Z,16.53
2018-10-02T09:24:20.430Z,8.47
2018-10-02T09:26:48.272Z,13.40
2018-10-02T09:29:23.272Z,8.47
2018-10-02T09:31:59.441Z,7.37
2018-10-02T09:34:32.229Z,6.60
2018-10-02T09:37:05.166Z,6.13
2018-10-02T09:42:19.080Z,8.53
2018-10-02T09:44:48.174Z,10.10
2018-10-02T09:47:15.204Z,13.37
2018-10-02T09:49:42.334Z,9.00
2018-10-02T09:52:09.414Z,19.77
2018-10-02T09:54:38.907Z,10.67
2018-10-02T09:57:05.993Z,10.13
2018-10-02T09:59:33.049Z,8.73
2018-10-02T10:02:05.902Z,6.30
2018-10-02T10:04:33.337Z,9.23
2018-10-02T10:07:01.227Z,7.87
2018-10-02T10:09:28.272Z,8.87
2018-10-02T10:11:55.352Z,10.13
2018-10-02T10:14:22.402Z,11.40
2018-10-02T10:16:49.582Z,10.63
2018-10-02T10:19:16.840Z,8.07
2018-10-02T10:21:43.979Z,9.93
2018-10-02T10:24:11.017Z,5.90
2018-10-02T10:26:38.131Z,10.07
2018-10-02T10:29:05.190Z,8.20
2018-10-02T10:31:32.281Z,10.23
2018-10-02T10:33:59.430Z,8.87
2018-10-02T10:36:26.509Z,10.27
2018-10-02T10:38:53.577Z,7.70
2018-10-02T10:41:21.056Z,9.47
2018-10-02T10:43:48.127Z,6.93
2018-10-02T10:46:15.299Z,7.57
2018-10-02T10:48:42.656Z,9.97
2018-10-02T10:51:09.765Z,10.90
2018-10-02T10:53:36.837Z,11.73
2018-10-02T10:56:04.532Z,11.00
2018-10-02T10:58:31.792Z,15.10
2018-10-02T11:00:58.826Z,8.40
2018-10-02T11:03:26.097Z,10.53
2018-10-02T11:05:53.209Z,6.53
2018-10-02T11:08:20.163Z,12.93
2018-10-02T11:10:47.300Z,9.50
2018-10-02T11:13:14.338Z,10.23
2018-10-02T11:15:41.556Z,12.33
2018-10-02T11:18:08.994Z,12.43
2018-10-02T11:20:36.901Z,7.40
2018-10-02T11:23:04.345Z,15.30
2018-10-02T11:25:32.199Z,11.10
2018-10-02T11:27:59.330Z,9.90
2018-10-02T11:30:26.405Z,8.97
2018-10-02T11:32:53.487Z,9.53
2018-10-02T11:35:20.592Z,20.37
2018-10-02T11:37:47.715Z,8.70
2018-10-02T11:40:15.402Z,11.63
2018-10-02T11:42:42.535Z,5.43
2018-10-02T11:45:09.595Z,12.47
2018-10-02T11:47:36.802Z,9.70
2018-10-02T11:50:04.072Z,11.13
2018-10-02T11:52:31.073Z,17.67
2018-10-02T11:54:58.212Z,14.73
2018-10-02T11:57:25.517Z,11.63
2018-10-02T11:59:52.500Z,7.20
2018-10-02T12:02:19.910Z,7.70
2018-10-02T12:04:53.766Z,7.03
2018-10-02T12:07:20.803Z,10.87
2018-10-02T12:09:47.874Z,9.63
2018-10-02T12:12:14.814Z,8.87
2018-10-02T12:14:41.851Z,5.77
2018-10-02T12:17:08.881Z,7.67
2018-10-02T12:19:35.993Z,11.77
2018-10-02T12:22:03.406Z,11.40
2018-10-02T12:24:30.367Z,6.17
2018-10-02T12:26:57.358Z,8.83
2018-10-02T12:29:24.634Z,7.90
2018-10-02T12:31:51.731Z,9.50
2018-10-02T12:34:18.820Z,16.37
2018-10-02T12:36:46.045Z,8.93
2018-10-02T12:39:13.067Z,8.63
2018-10-02T12:41:39.949Z,10.10
2018-10-02T12:44:07.328Z,7.73
2018-10-02T12:46:34.384Z,4.87
2018-10-02T12:49:01.406Z,6.80
2018-10-02T12:51:28.470Z,6.90
2018-10-02T12:53:55.478Z,10.07
2018-10-02T12:56:22.496Z,5.97
2018-10-02T12:58:49.764Z,6.70
2018-10-02T13:01:16.737Z,9.67
2018-10-02T13:03:43.717Z,5.53
2018-10-02T13:06:11.089Z,8.20
2018-10-02T13:08:38.050Z,6.30
2018-10-02T13:11:05.017Z,4.33
2018-10-02T13:13:32.094Z,8.20
2018-10-02T13:15:59.070Z,8.90
2018-10-02T13:18:26.056Z,6.27
2018-10-02T13:20:53.386Z,7.17
2018-10-02T13:23:20.467Z,11.87
2018-10-02T13:25:47.529Z,5.87
2018-10-02T13:28:14.833Z,8.10
2018-10-02T13:30:43.089Z,9.50
2018-10-02T13:33:10.103Z,8.03
2018-10-02T13:35:37.165Z,6.57
2018-10-02T13:38:04.336Z,9.50
2018-10-02T13:40:31.433Z,8.53
2018-10-02T13:42:58.658Z,8.30
2018-10-02T13:45:25.639Z,9.00
2018-10-02T13:47:52.626Z,9.13
2018-10-02T13:50:19.654Z,7.10
2018-10-02T13:52:46.605Z,9.07
2018-10-02T13:55:13.674Z,22.30
2018-10-02T13:57:41.143Z,7.63
2018-10-02T14:00:08.154Z,10.40
2018-10-02T14:02:35.771Z,8.97
2018-10-02T14:05:02.918Z,10.73
2018-10-02T14:07:29.949Z,8.37
2018-10-02T14:09:57.054Z,9.13
2018-10-02T14:12:24.345Z,15.03
2018-10-02T14:14:51.343Z,10.83
2018-10-02T14:17:18.268Z,10.50
2018-10-02T14:19:45.322Z,9.40
2018-10-02T14:22:12.269Z,8.63
2018-10-02T14:24:39.323Z,10.60
2018-10-02T14:27:06.706Z,8.13
2018-10-02T14:29:33.778Z,8.17
2018-10-02T14:32:00.779Z,10.03
2018-10-02T14:34:27.803Z,9.80
2018-10-02T14:36:54.881Z,11.30
2018-10-02T14:39:21.865Z,17.27
2018-10-02T14:41:49.258Z,10.97
2018-10-02T14:44:16.880Z,15.47
2018-10-02T14:46:44.917Z,11.80
2018-10-02T14:49:12.185Z,10.73
2018-10-02T14:51:41.234Z,11.77
2018-10-02T14:54:08.180Z,8.47
2018-10-02T14:56:35.510Z,8.70
2018-10-02T14:59:02.445Z,5.50
2018-10-02T15:01:29.376Z,5.17
2018-10-02T15:03:56.440Z,7.57
2018-10-02T15:06:23.422Z,7.87
2018-10-02T15:08:50.426Z,7.30
2018-10-02T15:11:17.810Z,7.03
2018-10-02T15:13:44.771Z,12.63
2018-10-02T15:16:11.716Z,8.07
2018-10-02T15:18:39.024Z,10.20
2018-10-02T15:21:06.017Z,11.43
2018-10-02T15:23:33.004Z,9.30
2018-10-02T15:26:00.378Z,10.70
2018-10-02T15:28:27.345Z,10.23
2018-10-02T15:30:54.268Z,9.40
2018-10-02T15:33:21.496Z,9.53
2018-10-02T15:35:48.458Z,9.60
2018-10-02T15:38:15.541Z,11.13
2018-10-02T15:40:42.797Z,11.27
2018-10-02T15:43:09.754Z,11.73
2018-10-02T15:45:36.676Z,10.30
2018-10-02T15:48:03.713Z,12.43
2018-10-02T15:50:30.657Z,11.87
2018-10-02T15:52:57.608Z,10.50
2018-10-02T15:55:24.597Z,11.43
2018-10-02T15:57:51.694Z,10.80
2018-10-02T16:00:18.646Z,10.03
2018-10-02T16:02:46.006Z,8.60
2018-10-02T16:05:12.942Z,9.83
2018-10-02T16:07:39.961Z,11.50
2018-10-02T16:10:07.219Z,12.20
2018-10-02T16:12:34.297Z,10.70
2018-10-02T16:15:01.275Z,9.20
2018-10-02T16:17:28.221Z,12.67
2018-10-02T16:19:55.228Z,7.93
2018-10-02T16:22:22.300Z,11.17
2018-10-02T16:24:49.526Z,12.27
2018-10-02T16:27:16.478Z,10.47
2018-10-02T16:29:43.690Z,18.67
2018-10-02T16:32:10.958Z,9.63
2018-10-02T16:34:48.981Z,11.00
2018-10-02T16:37:04.880Z,15.80
2018-10-02T16:39:32.193Z,8.50
2018-10-02T16:41:59.291Z,5.47
2018-10-02T16:44:26.293Z,5.50
2018-10-02T16:46:53.286Z,7.00
2018-10-02T16:49:20.234Z,5.67
2018-10-02T16:51:47.221Z,6.60
2018-10-02T16:54:14.518Z,9.97
2018-10-02T16:56:41.477Z,7.27
2018-10-02T16:59:08.434Z,7.47
2018-10-02T17:01:35.439Z,14.10
2018-10-02T17:04:02.604Z,6.10
2018-10-02T17:06:30.195Z,7.60
2018-10-02T17:08:57.669Z,7.70
2018-10-02T17:11:24.894Z,7.70
2018-10-02T17:13:52.234Z,6.13
2018-10-02T17:16:19.656Z,9.33
2018-10-02T17:18:46.694Z,8.43
2018-10-02T17:21:13.745Z,7.00
2018-10-02T17:23:40.808Z,10.30
2018-10-02T17:26:07.829Z,12.73
2018-10-02T17:28:34.869Z,6.70
2018-10-02T17:31:02.181Z,9.23
2018-10-02T17:33:29.182Z,8.37
2018-10-02T17:35:56.281Z,8.00
2018-10-02T17:38:23.603Z,10.30
2018-10-02T17:40:50.639Z,10.37
2018-10-02T17:43:17.921Z,10.90
2018-10-02T17:45:45.245Z,15.27
2018-10-02T17:48:12.320Z,9.80
2018-10-02T17:50:39.342Z,11.73
2018-10-02T17:53:06.376Z,16.73
2018-10-02T17:55:33.531Z,16.93
2018-10-02T17:59:25.623Z,15.63
2018-10-02T18:01:52.600Z,16.13
2018-10-02T18:04:19.657Z,16.43
2018-10-02T18:06:46.707Z,15.63
2018-10-02T18:09:13.783Z,8.97
2018-10-02T18:11:40.829Z,13.13
2018-10-02T18:14:08.329Z,12.70
2018-10-02T18:16:35.384Z,11.80
2018-10-02T18:19:02.379Z,17.20
2018-10-02T18:21:29.882Z,15.50
2018-10-02T18:23:56.889Z,17.10
2018-10-02T18:26:23.900Z,12.40
2018-10-02T18:28:51.244Z,14.33
2018-10-02T18:31:18.710Z,12.47
2018-10-02T18:33:45.833Z,13.80
2018-10-02T18:36:12.980Z,18.37
2018-10-02T18:38:40.030Z,14.97
2018-10-02T18:41:07.038Z,12.23
2018-10-02T18:43:34.049Z,11.70
2018-10-02T18:46:01.191Z,16.43
2018-10-02T18:48:28.163Z,20.90
2018-10-02T18:50:55.490Z,18.37
2018-10-02T18:53:22.494Z,10.30
2018-10-02T18:55:49.526Z,18.10
2018-10-02T18:58:16.640Z,16.83
2018-10-02T19:00:43.708Z,14.37
2018-10-02T19:03:10.750Z,12.07
2018-10-02T19:05:37.835Z,13.90
2018-10-02T19:08:04.937Z,15.07
2018-10-02T19:10:32.128Z,14.00
2018-10-02T19:12:59.472Z,14.07
2018-10-02T19:15:31.222Z,20.50
2018-10-02T19:17:58.405Z,22.00
2018-10-02T19:20:31.404Z,23.83
2018-10-02T19:22:58.473Z,16.57
2018-10-02T19:25:31.629Z,16.30
2018-10-02T19:27:58.694Z,22.40
2018-10-02T19:30:31.993Z,18.97
2018-10-02T19:32:59.111Z,15.87
2018-10-02T19:35:26.175Z,18.30
2018-10-02T19:37:59.021Z,13.87
2018-10-02T19:40:26.159Z,18.53
2018-10-02T19:42:53.352Z,23.17
2018-10-02T19:45:26.483Z,26.07
2018-10-02T19:47:53.577Z,26.30
2018-10-02T19:50:20.628Z,26.07
2018-10-02T19:52:47.994Z,18.50
2018-10-02T19:55:15.062Z,25.27
2018-10-02T19:57:44.137Z,23.00
2018-10-02T20:00:11.197Z,21.27
2018-10-02T20:02:38.222Z,22.30
2018-10-02T20:05:05.281Z,21.20
2018-10-02T20:07:32.387Z,23.23
2018-10-02T20:09:59.375Z,22.03
2018-10-02T20:12:26.424Z,19.97
2018-10-02T20:14:53.781Z,19.57
2018-10-02T20:17:20.836Z,18.43
2018-10-02T20:19:49.081Z,19.57
2018-10-02T20:22:16.205Z,22.20
2018-10-02T20:24:43.341Z,20.33
2018-10-02T20:27:10.322Z,17.67
2018-10-02T20:29:37.406Z,17.87
2018-10-02T20:32:04.434Z,32.17
2018-10-02T20:34:31.480Z,18.53
2018-10-02T20:36:58.578Z,19.63
2018-10-02T20:39:25.557Z,21.27
2018-10-02T20:41:52.631Z,21.67
2018-10-02T20:44:20.122Z,20.33
2018-10-02T20:46:47.182Z,19.80
2018-10-02T20:49:14.223Z,20.33
2018-10-02T20:51:41.205Z,21.63
2018-10-02T20:54:08.262Z,22.23
2018-10-02T20:56:35.305Z,19.63
2018-10-02T20:59:02.710Z,13.70
2018-10-02T21:01:29.766Z,16.97
2018-10-02T21:03:56.794Z,20.93
2018-10-02T21:06:24.251Z,15.73
2018-10-02T21:08:51.265Z,26.20
2018-10-02T21:11:18.367Z,22.50
2018-10-02T21:13:45.449Z,19.27
2018-10-02T21:16:12.544Z,20.90
2018-10-02T21:18:39.560Z,14.77
2018-10-02T21:21:07.221Z,22.70
2018-10-02T21:23:34.340Z,25.17
2018-10-02T21:26:01.337Z,26.33
2018-10-02T21:28:28.866Z,22.90
2018-10-02T21:30:55.915Z,17.50
2018-10-02T21:33:23.234Z,17.67
2018-10-02T21:35:50.509Z,25.13
2018-10-02T21:38:17.832Z,21.40
2018-10-02T21:40:44.832Z,25.10
2018-10-02T21:43:11.950Z,31.80
2018-10-02T21:45:39.004Z,19.80
2018-10-02T21:48:06.106Z,16.30
2018-10-02T21:50:33.603Z,15.87
2018-10-02T21:53:00.694Z,27.13
2018-10-02T21:55:27.760Z,25.30
2018-10-02T21:57:55.121Z,26.10
2018-10-02T22:00:22.177Z,22.00
2018-10-02T22:02:49.231Z,30.27
2018-10-02T22:05:16.589Z,21.43
2018-10-02T22:07:43.611Z,25.60
2018-10-02T22:10:10.639Z,24.43
2018-10-02T22:12:37.725Z,24.20
2018-10-02T22:15:04.756Z,20.50
2018-10-02T22:17:31.810Z,22.43
2018-10-02T22:19:59.161Z,15.60
2018-10-02T22:22:26.203Z,22.13
2018-10-02T22:24:53.223Z,25.93
2018-10-02T22:27:21.365Z,28.60
2018-10-02T22:29:48.356Z,21.03
2018-10-02T22:32:15.408Z,29.03
2018-10-02T22:34:42.822Z,29.27
2018-10-02T22:37:09.814Z,17.20
2018-10-02T22:39:36.867Z,20.23
2018-10-02T22:42:03.902Z,18.63
2018-10-02T22:44:30.961Z,19.90
2018-10-02T22:46:57.948Z,20.00
2018-10-02T22:49:25.310Z,21.87
2018-10-02T22:51:52.422Z,19.63
2018-10-02T22:54:19.413Z,26.97
2018-10-02T22:56:46.961Z,19.50
2018-10-02T22:59:14.041Z,19.50
2018-10-02T23:01:40.973Z,15.87
2018-10-02T23:04:08.681Z,21.53
2018-10-02T23:06:35.682Z,15.30
2018-10-02T23:09:04.580Z,15.97
2018-10-02T23:11:31.537Z,23.90
2018-10-02T23:13:58.648Z,30.53
2018-10-02T23:16:25.672Z,29.90
2018-10-02T23:18:53.134Z,25.67
2018-10-02T23:21:20.169Z,19.60
2018-10-02T23:23:47.198Z,29.00
2018-10-02T23:26:14.581Z,23.87
2018-10-02T23:28:41.622Z,23.87
2018-10-02T23:31:08.650Z,27.57
2018-10-02T23:33:35.759Z,27.70
2018-10-02T23:36:02.981Z,28.67
2018-10-02T23:38:29.995Z,17.87
2018-10-02T23:40:57.100Z,28.37
2018-10-02T23:43:24.145Z,25.63
2018-10-02T23:45:51.108Z,19.63
2018-10-02T23:48:18.525Z,18.83
2018-10-02T23:50:45.552Z,15.60
2018-10-02T23:53:12.645Z,21.80
2018-10-02T23:55:40.069Z,25.23
2018-10-02T23:58:07.073Z,24.37
